Time;durP1;ratioP1;P1;durP2;ratioP2;P2;SDS_P1;SDS_P2;PMS_P1;PMS_P2;Temp;Humidity;BMP_temperature;BMP_pressure;BME280_temperature;BME280_humidity;BME280_pressure;Samples;Min_cycle;Max_cycle;Signal;HPM_P1;HPM_P2
2021/06/10 00:01:28;;;;;;;22.38;20.23;;;15.60;99.90;;;;;;5071121;28;20041;-52
2021/06/10 00:03:55;;;;;;;22.63;20.45;;;15.60;99.90;;;;;;5070128;28;20049;-51
2021/06/10 00:06:21;;;;;;;24.77;22.48;;;15.60;99.90;;;;;;5061269;28;20060;-53
2021/06/10 00:08:47;;;;;;;24.27;21.88;;;15.60;99.90;;;;;;5058415;28;20472;-52
2021/06/10 00:11:16;;;;;;;24.05;21.85;;;15.50;99.90;;;;;;5070149;28;20052;-52
2021/06/10 00:13:42;;;;;;;25.23;22.67;;;15.50;99.90;;;;;;5077592;28;20044;-53
2021/06/10 00:16:08;;;;;;;24.40;22.17;;;15.50;99.90;;;;;;5068752;28;20362;-52
2021/06/10 00:18:38;;;;;;;24.42;22.20;;;15.50;99.90;;;;;;5054766;28;20036;-50
2021/06/10 00:21:04;;;;;;;26.25;23.63;;;15.50;99.90;;;;;;5073997;28;20559;-50
2021/06/10 00:23:30;;;;;;;24.55;22.25;;;15.40;99.90;;;;;;5063451;28;20044;-48
2021/06/10 00:25:57;;;;;;;25.80;23.48;;;15.30;99.90;;;;;;5050726;28;20053;-49
2021/06/10 00:28:23;;;;;;;25.80;23.50;;;15.30;99.90;;;;;;5050469;28;20786;-51
2021/06/10 00:30:50;;;;;;;23.92;21.70;;;15.20;99.90;;;;;;5049985;28;20179;-51
2021/06/10 00:33:20;;;;;;;25.65;23.25;;;15.20;99.90;;;;;;5049401;28;20045;-50
2021/06/10 00:35:46;;;;;;;24.33;21.98;;;15.20;99.90;;;;;;5049528;28;20438;-53
2021/06/10 00:38:14;;;;;;;24.90;22.52;;;15.10;99.90;;;;;;5054693;28;20810;-53
2021/06/10 00:40:41;;;;;;;24.55;22.27;;;15.10;99.90;;;;;;5069431;28;20455;-52
2021/06/10 00:43:08;;;;;;;25.98;23.40;;;15.10;99.90;;;;;;5070012;28;20049;-50
2021/06/10 00:45:34;;;;;;;25.80;23.30;;;15.00;99.90;;;;;;5049431;28;20051;-52
2021/06/10 00:48:01;;;;;;;25.85;23.27;;;14.90;99.90;;;;;;5050014;28;20116;-50
2021/06/10 00:50:48;;;;;;;28.27;25.50;;;14.90;99.90;;;;;;5049952;28;20076;-52
2021/06/10 00:53:25;;;;;;;28.13;25.35;;;14.80;99.90;;;;;;5051864;28;20055;-51
2021/06/10 00:55:59;;;;;;;27.70;24.98;;;14.70;99.90;;;;;;5067126;28;20646;-49
2021/06/10 00:58:26;;;;;;;27.92;25.20;;;14.60;99.90;;;;;;5069218;28;20049;-50
2021/06/10 01:00:54;;;;;;;26.63;24.13;;;14.60;99.90;;;;;;5064215;28;20237;-51
2021/06/10 01:03:21;;;;;;;29.73;26.85;;;14.60;99.90;;;;;;5050257;28;20147;-49
2021/06/10 01:05:52;;;;;;;29.65;26.75;;;14.60;99.90;;;;;;5060916;28;20755;-52
2021/06/10 01:08:42;;;;;;;29.40;26.58;;;14.50;99.90;;;;;;5069196;28;20123;-57
2021/06/10 01:11:16;;;;;;;30.38;27.38;;;14.50;99.90;;;;;;5049107;28;20100;-56
2021/06/10 01:14:24;;;;;;;31.10;27.90;;;14.50;99.90;;;;;;5048949;28;20049;-55
2021/06/10 01:16:51;;;;;;;29.60;26.58;;;14.50;99.90;;;;;;5049047;28;20481;-52
2021/06/10 01:19:41;;;;;;;30.33;27.23;;;14.50;99.90;;;;;;5049138;28;20136;-53
2021/06/10 01:22:29;;;;;;;31.85;28.50;;;14.40;99.90;;;;;;5049218;28;20052;-50
2021/06/10 01:25:23;;;;;;;30.67;27.67;;;14.40;99.90;;;;;;5054436;28;20051;-49
2021/06/10 01:27:53;;;;;;;31.85;27.80;;;14.40;99.90;;;;;;5067951;28;20051;-52
2021/06/10 01:30:23;;;;;;;35.67;32.03;;;14.30;99.90;;;;;;5068503;28;20128;-54
2021/06/10 01:32:54;;;;;;;32.45;29.10;;;14.30;99.90;;;;;;5068647;28;20044;-53
2021/06/10 01:35:24;;;;;;;28.65;25.73;;;14.20;99.90;;;;;;5053655;28;20045;-53
2021/06/10 01:37:53;;;;;;;31.75;28.65;;;14.10;99.90;;;;;;5052819;28;20043;-51
2021/06/10 01:40:26;;;;;;;34.17;30.77;;;14.10;99.90;;;;;;5047853;28;20052;-51
2021/06/10 01:42:55;;;;;;;34.10;30.52;;;14.10;99.90;;;;;;5065872;28;20048;-53
2021/06/10 01:45:25;;;;;;;34.03;30.50;;;14.10;99.90;;;;;;5056862;28;20040;-53
2021/06/10 01:47:52;;;;;;;36.75;32.95;;;14.10;99.90;;;;;;5049425;28;20057;-51
2021/06/10 01:50:21;;;;;;;34.70;31.20;;;14.00;99.90;;;;;;5048534;28;20040;-54
2021/06/10 01:52:48;;;;;;;40.03;35.78;;;14.00;99.90;;;;;;5048497;28;20052;-50
2021/06/10 01:55:20;;;;;;;39.58;35.45;;;14.00;99.90;;;;;;5050026;28;20099;-51
2021/06/10 01:57:47;;;;;;;39.50;35.53;;;14.00;99.90;;;;;;5059203;28;20037;-50
2021/06/10 02:00:15;;;;;;;36.50;32.80;;;14.00;99.90;;;;;;5048217;28;20048;-54
2021/06/10 02:02:47;;;;;;;35.65;32.03;;;13.90;99.90;;;;;;5048389;28;20048;-50
2021/06/10 02:05:21;;;;;;;34.97;31.38;;;13.90;99.90;;;;;;5065847;28;20048;-49
2021/06/10 02:07:48;;;;;;;39.88;35.75;;;13.90;99.90;;;;;;5066621;28;20094;-50
2021/06/10 02:10:18;;;;;;;40.20;36.00;;;13.80;99.90;;;;;;5058638;28;20130;-49
2021/06/10 02:12:48;;;;;;;42.35;37.75;;;13.80;99.90;;;;;;5047648;28;20068;-53
2021/06/10 02:15:16;;;;;;;46.40;38.63;;;13.80;99.90;;;;;;5047934;28;20049;-48
2021/06/10 02:17:43;;;;;;;40.08;35.90;;;13.80;99.90;;;;;;5054274;28;20118;-54
2021/06/10 02:20:14;;;;;;;41.08;36.67;;;13.70;99.90;;;;;;5057451;28;20041;-52
2021/06/10 02:22:40;;;;;;;40.97;36.63;;;13.70;99.90;;;;;;5047648;28;20049;-48
2021/06/10 02:25:07;;;;;;;41.60;37.13;;;13.70;99.90;;;;;;5049023;28;20083;-51
2021/06/10 02:27:33;;;;;;;40.30;36.08;;;13.70;99.90;;;;;;5047592;28;20056;-50
2021/06/10 02:30:00;;;;;;;35.95;32.22;;;13.70;99.90;;;;;;5048719;28;20045;-51
2021/06/10 02:32:27;;;;;;;41.33;37.05;;;13.60;99.90;;;;;;5056872;28;20438;-50
2021/06/10 02:34:54;;;;;;;40.65;36.20;;;13.60;99.90;;;;;;5058111;28;20080;-53
2021/06/10 02:37:24;;;;;;;35.65;32.25;;;13.60;99.90;;;;;;5066986;28;20055;-49
2021/06/10 02:39:53;;;;;;;38.03;33.92;;;13.50;99.90;;;;;;5064769;28;20049;-48
2021/06/10 02:42:20;;;;;;;36.95;33.15;;;13.50;99.90;;;;;;5046432;28;20132;-52
2021/06/10 02:44:50;;;;;;;37.55;33.63;;;13.40;99.90;;;;;;5060777;28;20044;-48
2021/06/10 02:47:19;;;;;;;36.70;32.85;;;13.40;99.90;;;;;;5053478;28;20135;-51
2021/06/10 02:49:47;;;;;;;33.17;29.77;;;13.30;99.90;;;;;;5051136;28;20036;-52
2021/06/10 02:52:17;;;;;;;38.50;34.38;;;13.30;99.90;;;;;;5055876;28;20468;-50
2021/06/10 02:54:46;;;;;;;40.72;36.47;;;13.30;99.90;;;;;;5046680;28;20579;-53
2021/06/10 02:57:13;;;;;;;39.28;35.15;;;13.30;99.90;;;;;;5048416;28;20056;-49
2021/06/10 02:59:42;;;;;;;40.65;36.22;;;13.20;99.90;;;;;;5048199;28;20393;-51
2021/06/10 03:02:10;;;;;;;37.72;33.88;;;13.20;99.90;;;;;;5048706;28;20068;-50
2021/06/10 03:04:43;;;;;;;37.70;33.85;;;13.10;99.90;;;;;;5047461;28;20144;-51
2021/06/10 03:07:15;;;;;;;35.80;32.15;;;13.10;99.90;;;;;;5052700;28;20068;-49
2021/06/10 03:09:43;;;;;;;39.55;35.45;;;13.10;99.90;;;;;;5047413;28;20053;-52
2021/06/10 03:12:11;;;;;;;38.45;33.15;;;13.10;99.90;;;;;;5048498;28;20075;-50
2021/06/10 03:14:40;;;;;;;37.47;33.67;;;13.00;99.90;;;;;;5048327;28;20413;-49
2021/06/10 03:17:08;;;;;;;35.05;31.45;;;13.00;99.90;;;;;;5047294;28;20056;-55
2021/06/10 03:19:35;;;;;;;39.85;35.80;;;13.00;99.90;;;;;;5047605;28;20190;-49
2021/06/10 03:22:04;;;;;;;39.60;35.35;;;13.00;99.90;;;;;;5062923;28;20147;-49
2021/06/10 03:24:31;;;;;;;36.05;32.25;;;13.00;99.90;;;;;;5063880;28;20041;-51
2021/06/10 03:27:00;;;;;;;39.28;35.38;;;13.00;99.90;;;;;;5066974;28;20048;-50
2021/06/10 03:29:27;;;;;;;38.75;34.92;;;13.00;99.90;;;;;;5063740;28;20059;-49
2021/06/10 03:31:54;;;;;;;41.75;37.40;;;12.90;99.90;;;;;;5061469;28;20037;-55
2021/06/10 03:34:21;;;;;;;44.72;39.92;;;12.90;99.90;;;;;;5063501;28;20059;-52
2021/06/10 03:36:50;;;;;;;42.40;35.90;;;12.90;99.90;;;;;;5066514;28;20469;-50
2021/06/10 03:39:19;;;;;;;41.42;37.15;;;12.90;99.90;;;;;;5068431;28;20044;-51
2021/06/10 03:41:48;;;;;;;38.80;34.60;;;12.90;99.90;;;;;;5048241;28;20049;-52
2021/06/10 03:44:17;;;;;;;37.90;33.95;;;12.90;99.90;;;;;;5055773;28;20049;-53
2021/06/10 03:46:44;;;;;;;38.17;34.28;;;12.90;99.90;;;;;;5054865;28;20556;-51
2021/06/10 03:49:11;;;;;;;38.72;34.72;;;12.90;99.90;;;;;;5046995;28;20041;-50
2021/06/10 03:51:38;;;;;;;40.25;36.15;;;12.90;99.90;;;;;;5047477;28;20091;-52
2021/06/10 03:54:06;;;;;;;37.25;33.65;;;12.90;99.90;;;;;;5045663;28;20049;-55
2021/06/10 03:56:34;;;;;;;35.58;31.90;;;12.90;99.90;;;;;;5057802;28;20056;-53
2021/06/10 03:59:00;;;;;;;35.22;31.73;;;12.90;99.90;;;;;;5066685;28;20048;-48
2021/06/10 04:01:26;;;;;;;34.53;31.13;;;13.00;99.90;;;;;;5060315;28;20049;-54
2021/06/10 04:03:53;;;;;;;34.20;30.90;;;13.00;99.90;;;;;;5045523;28;20052;-52
2021/06/10 04:06:28;;;;;;;34.47;31.00;;;13.00;99.90;;;;;;5046557;28;20045;-51
2021/06/10 04:09:08;;;;;;;37.83;34.00;;;13.10;99.90;;;;;;5047216;28;20052;-50
2021/06/10 04:11:39;;;;;;;37.03;33.30;;;13.10;99.90;;;;;;5049835;28;20051;-51
2021/06/10 04:14:06;;;;;;;36.22;32.40;;;13.10;99.90;;;;;;5068174;28;20064;-51
2021/06/10 04:16:33;;;;;;;30.40;27.33;;;13.10;99.90;;;;;;5073454;28;20450;-52
2021/06/10 04:18:59;;;;;;;34.08;30.58;;;13.10;99.90;;;;;;5071254;28;20043;-53
2021/06/10 04:21:46;;;;;;;34.40;31.10;;;13.10;99.90;;;;;;5069821;28;20048;-52
2021/06/10 04:24:12;;;;;;;37.15;33.45;;;13.10;99.90;;;;;;5054297;28;20198;-53
2021/06/10 04:26:41;;;;;;;36.30;32.70;;;13.20;99.90;;;;;;5049071;28;20079;-53
2021/06/10 04:29:07;;;;;;;31.75;28.45;;;13.20;99.90;;;;;;5051957;28;20052;-50
2021/06/10 04:31:34;;;;;;;31.25;27.90;;;13.20;99.90;;;;;;5062239;28;20045;-55
2021/06/10 04:34:00;;;;;;;37.10;29.80;;;13.30;99.90;;;;;;5049142;28;20385;-54
2021/06/10 04:36:34;;;;;;;33.15;29.75;;;13.40;99.90;;;;;;5049406;28;20746;-55
2021/06/10 04:39:00;;;;;;;33.67;30.08;;;13.50;99.90;;;;;;5049208;28;20114;-50
2021/06/10 04:41:31;;;;;;;34.88;31.23;;;13.50;99.90;;;;;;5050946;28;20606;-52
2021/06/10 04:44:11;;;;;;;36.83;33.17;;;13.60;99.90;;;;;;5049438;28;20142;-51
2021/06/10 04:46:41;;;;;;;40.53;36.13;;;13.70;99.90;;;;;;5056229;28;20041;-50
2021/06/10 04:49:11;;;;;;;38.22;34.25;;;13.80;99.90;;;;;;5067862;28;20060;-53
2021/06/10 04:51:38;;;;;;;38.63;34.60;;;13.90;99.90;;;;;;5068525;28;20040;-50
2021/06/10 04:54:05;;;;;;;38.53;34.55;;;13.90;99.90;;;;;;5068860;28;20102;-56
2021/06/10 04:56:36;;;;;;;43.15;38.17;;;14.00;99.90;;;;;;5070372;28;20479;-51
2021/06/10 04:59:03;;;;;;;46.08;40.45;;;14.10;99.90;;;;;;5069337;28;20547;-57
2021/06/10 05:01:29;;;;;;;43.33;38.80;;;14.30;99.90;;;;;;5065308;28;20179;-57
2021/06/10 05:03:56;;;;;;;43.70;39.28;;;14.40;99.90;;;;;;5068711;28;20512;-58
2021/06/10 05:06:23;;;;;;;43.25;38.75;;;14.60;99.90;;;;;;5069026;28;20051;-58
2021/06/10 05:08:49;;;;;;;39.63;35.60;;;14.90;99.90;;;;;;5069070;28;20055;-58
2021/06/10 05:11:18;;;;;;;40.30;36.17;;;15.40;99.90;;;;;;5069332;28;20053;-57
2021/06/10 05:13:45;;;;;;;38.17;34.15;;;15.90;99.90;;;;;;5077771;28;20114;-57
2021/06/10 05:16:13;;;;;;;39.10;34.95;;;16.20;99.90;;;;;;5077430;28;20539;-58
2021/06/10 05:18:43;;;;;;;37.33;33.10;;;16.50;99.90;;;;;;5060323;28;20068;-57
2021/06/10 05:21:12;;;;;;;36.10;32.42;;;16.90;99.90;;;;;;5017645;28;20080;-57
2021/06/10 05:23:41;;;;;;;34.92;31.30;;;17.10;99.90;;;;;;5028632;28;20050;-57
2021/06/10 05:26:10;;;;;;;31.98;28.98;;;17.30;99.90;;;;;;5028315;28;20045;-57
2021/06/10 05:28:37;;;;;;;31.67;28.30;;;17.50;99.90;;;;;;5029036;28;20877;-58
2021/06/10 05:31:06;;;;;;;32.78;29.63;;;17.90;99.90;;;;;;5028730;28;20103;-58
2021/06/10 05:33:35;;;;;;;33.13;29.60;;;18.00;99.90;;;;;;5028324;28;20103;-57
2021/06/10 05:36:02;;;;;;;32.92;29.70;;;18.20;99.90;;;;;;5027078;28;20048;-57
2021/06/10 05:38:29;;;;;;;30.98;28.10;;;18.40;99.90;;;;;;5035157;28;20044;-57
2021/06/10 05:40:55;;;;;;;31.98;28.85;;;18.60;99.90;;;;;;5028486;28;20042;-57
2021/06/10 05:43:23;;;;;;;32.85;29.60;;;18.70;99.90;;;;;;5010355;28;20038;-58
2021/06/10 05:45:50;;;;;;;44.60;40.15;;;18.90;99.90;;;;;;5029576;28;20050;-58
2021/06/10 05:48:18;;;;;;;32.85;29.60;;;19.20;99.90;;;;;;5018382;28;20046;-58
2021/06/10 05:50:46;;;;;;;38.88;35.15;;;19.30;99.90;;;;;;5024039;28;20053;-58
2021/06/10 05:53:15;;;;;;;37.80;33.90;;;19.40;99.90;;;;;;5011071;28;20056;-58
2021/06/10 05:55:42;;;;;;;30.67;27.35;;;19.60;99.70;;;;;;5007849;28;20061;-58
2021/06/10 05:58:09;;;;;;;29.23;26.50;;;19.80;99.00;;;;;;5022751;28;20128;-58
2021/06/10 06:00:41;;;;;;;27.02;24.42;;;20.00;98.00;;;;;;5029377;28;20045;-57
2021/06/10 06:03:08;;;;;;;36.22;32.72;;;20.10;96.60;;;;;;5028110;28;20128;-58
2021/06/10 06:05:35;;;;;;;98.07;88.35;;;20.30;96.10;;;;;;5023712;28;20232;-59
2021/06/10 06:08:02;;;;;;;41.13;37.10;;;20.40;97.00;;;;;;5025398;28;20136;-59
2021/06/10 06:10:30;;;;;;;29.77;26.95;;;20.60;94.80;;;;;;5013972;28;20048;-58
2021/06/10 06:13:02;;;;;;;40.00;36.25;;;20.70;96.00;;;;;;5027206;28;20054;-59
2021/06/10 06:15:34;;;;;;;30.38;27.52;;;20.90;95.30;;;;;;5026196;28;20052;-59
2021/06/10 06:18:01;;;;;;;26.08;23.48;;;21.10;93.80;;;;;;5026589;28;20425;-59
2021/06/10 06:20:31;;;;;;;25.55;23.25;;;21.10;94.00;;;;;;5026985;28;20046;-59
2021/06/10 06:22:57;;;;;;;26.13;23.73;;;21.20;92.00;;;;;;5026844;28;20171;-59
2021/06/10 06:25:23;;;;;;;24.10;21.83;;;21.30;91.30;;;;;;5033316;28;20846;-59
2021/06/10 06:27:50;;;;;;;25.33;23.02;;;21.30;90.80;;;;;;5024994;28;20056;-59
2021/06/10 06:30:17;;;;;;;26.20;23.70;;;21.30;91.40;;;;;;5024708;28;20045;-58
2021/06/10 06:32:47;;;;;;;36.53;32.88;;;21.40;89.40;;;;;;5023657;28;20068;-60
2021/06/10 06:35:17;;;;;;;34.45;31.17;;;21.40;90.70;;;;;;5024815;28;20049;-57
2021/06/10 06:38:03;;;;;;;57.03;51.53;;;21.50;90.20;;;;;;5023469;28;20052;-57
2021/06/10 06:40:29;;;;;;;22.98;20.83;;;21.80;89.50;;;;;;5029765;28;20046;-57
2021/06/10 06:42:57;;;;;;;31.17;28.10;;;21.80;85.70;;;;;;5028613;28;20042;-57
2021/06/10 06:45:23;;;;;;;21.17;19.20;;;22.00;86.70;;;;;;4992150;28;20042;-58
2021/06/10 06:47:49;;;;;;;30.77;27.60;;;22.10;87.50;;;;;;5018208;28;20379;-60
2021/06/10 06:50:17;;;;;;;67.55;60.70;;;22.20;84.90;;;;;;5027614;28;20045;-59
2021/06/10 06:53:01;;;;;;;18.88;17.08;;;22.10;86.80;;;;;;5026839;28;20049;-59
2021/06/10 06:55:30;;;;;;;26.42;23.83;;;22.20;83.70;;;;;;5026970;28;20053;-58
2021/06/10 06:57:57;;;;;;;17.05;15.35;;;22.30;82.80;;;;;;5025895;28;20053;-57
2021/06/10 07:00:24;;;;;;;29.63;26.83;;;22.20;79.30;;;;;;5012679;28;20046;-59
2021/06/10 07:02:50;;;;;;;17.67;16.10;;;22.50;79.90;;;;;;5010957;28;20128;-57
2021/06/10 07:05:19;;;;;;;15.95;14.40;;;22.70;78.40;;;;;;5017671;28;20125;-57
2021/06/10 07:07:46;;;;;;;18.27;16.60;;;22.90;78.70;;;;;;5023976;28;20049;-54
2021/06/10 07:10:15;;;;;;;16.40;14.80;;;23.10;77.10;;;;;;5026993;28;20513;-58
2021/06/10 07:12:55;;;;;;;16.83;15.18;;;23.10;75.20;;;;;;5018834;28;20038;-58
2021/06/10 07:15:21;;;;;;;14.85;13.40;;;23.30;76.10;;;;;;5021580;28;20054;-58
2021/06/10 07:17:54;;;;;;;14.93;13.52;;;23.30;75.70;;;;;;5015456;28;20140;-57
2021/06/10 07:20:21;;;;;;;15.23;13.70;;;23.50;76.00;;;;;;5010486;28;20386;-57
2021/06/10 07:22:49;;;;;;;13.73;12.52;;;23.40;75.10;;;;;;5008630;28;20052;-57
2021/06/10 07:25:16;;;;;;;13.85;12.18;;;23.30;73.80;;;;;;5017803;28;20142;-57
2021/06/10 07:27:48;;;;;;;13.38;12.23;;;23.30;74.10;;;;;;5018996;28;20569;-57
2021/06/10 07:30:19;;;;;;;13.55;12.35;;;23.40;72.90;;;;;;5026545;28;20136;-55
2021/06/10 07:32:46;;;;;;;15.88;14.48;;;23.50;71.60;;;;;;5021598;28;20449;-48
2021/06/10 07:35:21;;;;;;;13.63;12.27;;;23.40;73.10;;;;;;5018140;28;20428;-56
2021/06/10 07:37:53;;;;;;;32.20;29.17;;;23.80;72.50;;;;;;5018081;28;20123;-56
2021/06/10 07:40:23;;;;;;;12.98;11.68;;;24.10;71.40;;;;;;5027462;28;20056;-59
2021/06/10 07:42:50;;;;;;;;;;;24.40;70.10;;;;;;5007833;28;20049;-59
2021/06/10 07:45:20;;;;;;;13.93;12.65;;;24.40;65.90;;;;;;5030967;28;19956;-59
2021/06/10 07:47:46;;;;;;;14.02;12.55;;;24.60;70.00;;;;;;5032809;28;20052;-59
2021/06/10 07:50:16;;;;;;;14.60;13.32;;;24.80;68.60;;;;;;5023603;28;20050;-59
2021/06/10 07:52:42;;;;;;;12.77;11.60;;;25.00;66.20;;;;;;5027884;28;20481;-59
2021/06/10 07:55:10;;;;;;;14.27;13.07;;;25.10;67.10;;;;;;5030572;28;20050;-59
2021/06/10 07:57:36;;;;;;;16.50;14.95;;;25.10;65.60;;;;;;5030755;28;20091;-58
2021/06/10 08:00:05;;;;;;;13.50;12.30;;;25.30;64.90;;;;;;5022086;28;20045;-58
2021/06/10 08:02:42;;;;;;;17.55;16.05;;;25.20;63.70;;;;;;5022808;28;20041;-56
2021/06/10 08:05:12;;;;;;;13.88;12.48;;;25.50;63.80;;;;;;5030089;28;20049;-58
2021/06/10 08:07:42;;;;;;;13.50;12.38;;;25.40;63.90;;;;;;5012848;28;20050;-58
2021/06/10 08:10:11;;;;;;;11.95;10.73;;;25.40;63.30;;;;;;5011241;28;20723;-57
2021/06/10 08:12:37;;;;;;;15.18;13.65;;;25.60;62.30;;;;;;5015829;28;20069;-55
2021/06/10 08:15:05;;;;;;;12.75;11.65;;;25.80;63.00;;;;;;5024337;28;20053;-56
2021/06/10 08:17:34;;;;;;;14.38;12.88;;;25.80;63.00;;;;;;5029729;28;20046;-55
2021/06/10 08:20:03;;;;;;;12.25;11.15;;;26.00;61.80;;;;;;5026740;28;20049;-56
2021/06/10 08:22:30;;;;;;;14.65;13.25;;;26.40;61.00;;;;;;5035374;28;20037;-57
2021/06/10 08:24:56;;;;;;;11.73;10.60;;;26.30;60.60;;;;;;5038845;28;20045;-56
2021/06/10 08:27:23;;;;;;;11.80;10.63;;;26.30;60.00;;;;;;5030620;28;20049;-56
2021/06/10 08:29:49;;;;;;;11.07;10.05;;;26.30;59.90;;;;;;5031406;28;20116;-56
2021/06/10 08:32:15;;;;;;;26.00;23.60;;;26.50;59.50;;;;;;5026366;28;20041;-57
2021/06/10 08:34:41;;;;;;;13.07;11.77;;;26.30;57.90;;;;;;5027907;28;20049;-56
2021/06/10 08:37:13;;;;;;;14.43;13.05;;;26.40;60.00;;;;;;5029507;28;20048;-56
2021/06/10 08:39:39;;;;;;;16.45;14.73;;;26.60;59.20;;;;;;5032721;28;20486;-56
2021/06/10 08:42:06;;;;;;;12.85;11.70;;;26.60;57.60;;;;;;5049907;28;20087;-55
2021/06/10 08:44:35;;;;;;;13.32;12.23;;;26.70;56.70;;;;;;5033097;28;20065;-57
2021/06/10 08:47:07;;;;;;;13.05;11.82;;;26.90;57.70;;;;;;5010401;28;20050;-57
2021/06/10 08:49:36;;;;;;;12.38;11.10;;;27.00;56.50;;;;;;5021989;28;20056;-57
2021/06/10 08:52:06;;;;;;;12.13;9.50;;;26.50;56.50;;;;;;5039906;28;20060;-57
2021/06/10 08:54:33;;;;;;;10.18;9.10;;;26.70;56.00;;;;;;5042975;28;20493;-57
2021/06/10 08:57:00;;;;;;;9.13;8.23;;;26.80;54.60;;;;;;5044472;28;20452;-58
2021/06/10 08:59:26;;;;;;;8.20;6.38;;;26.90;55.40;;;;;;5033839;28;20038;-57
2021/06/10 09:01:55;;;;;;;8.60;6.45;;;27.30;54.40;;;;;;5030393;28;20056;-58
2021/06/10 09:04:21;;;;;;;8.52;7.63;;;27.40;52.90;;;;;;5028558;28;20046;-56
2021/06/10 09:06:50;;;;;;;10.93;9.93;;;27.60;52.60;;;;;;5027559;28;20049;-56
2021/06/10 09:09:39;;;;;;;8.80;7.95;;;27.80;53.10;;;;;;5028752;28;20524;-57
2021/06/10 09:12:08;;;;;;;10.43;9.40;;;28.00;50.90;;;;;;5019897;28;20053;-57
2021/06/10 09:15:02;;;;;;;12.43;11.20;;;27.70;51.60;;;;;;5021126;28;20056;-57
2021/06/10 09:17:39;;;;;;;10.05;8.43;;;27.50;50.40;;;;;;5021200;28;20111;-57
2021/06/10 09:20:21;;;;;;;13.57;12.27;;;27.30;52.30;;;;;;5013526;28;20041;-56
2021/06/10 09:22:50;;;;;;;7.97;7.25;;;27.70;50.80;;;;;;5012392;28;20045;-55
2021/06/10 09:25:20;;;;;;;10.00;9.10;;;28.20;50.30;;;;;;5013649;28;20046;-56
2021/06/10 09:27:57;;;;;;;8.85;7.10;;;28.60;49.10;;;;;;5009829;28;20049;-57
2021/06/10 09:30:48;;;;;;;9.45;7.50;;;29.10;47.10;;;;;;5010177;28;20072;-57
2021/06/10 09:33:20;;;;;;;8.45;7.13;;;29.70;45.80;;;;;;5020195;28;20505;-57
2021/06/10 09:35:47;;;;;;;15.57;10.75;;;29.50;45.50;;;;;;5030193;28;20040;-57
2021/06/10 09:38:28;;;;;;;9.88;6.93;;;29.40;45.40;;;;;;5025237;28;20065;-57
2021/06/10 09:41:04;;;;;;;12.15;11.05;;;29.30;46.40;;;;;;5026956;28;20050;-56
2021/06/10 09:43:45;;;;;;;11.18;10.07;;;29.60;46.00;;;;;;5033222;28;20045;-56
2021/06/10 09:46:14;;;;;;;8.80;7.03;;;29.30;42.50;;;;;;5019043;28;20049;-56
2021/06/10 09:49:10;;;;;;;7.65;6.90;;;29.30;43.90;;;;;;5016186;28;20135;-56
2021/06/10 09:51:41;;;;;;;18.35;16.45;;;29.40;45.20;;;;;;5031763;28;20076;-53
2021/06/10 09:54:08;;;;;;;9.25;6.28;;;29.30;44.40;;;;;;5032850;28;20428;-55
2021/06/10 09:56:35;;;;;;;12.88;8.90;;;29.40;43.70;;;;;;5024941;28;20160;-54
2021/06/10 09:59:09;;;;;;;11.13;10.13;;;29.50;43.00;;;;;;5024158;28;20049;-55
2021/06/10 10:01:35;;;;;;;7.75;6.03;;;30.00;43.20;;;;;;5024530;28;20056;-55
2021/06/10 10:04:02;;;;;;;8.02;6.45;;;29.50;44.10;;;;;;5008444;28;20521;-53
2021/06/10 10:06:30;;;;;;;10.25;9.15;;;29.70;43.70;;;;;;5024480;28;20077;-50
2021/06/10 10:09:00;;;;;;;6.57;5.50;;;29.60;44.40;;;;;;5023514;28;20045;-53
2021/06/10 10:11:32;;;;;;;6.95;4.38;;;29.80;43.60;;;;;;5026157;28;20045;-53
2021/06/10 10:14:00;;;;;;;8.25;5.22;;;30.00;44.80;;;;;;5027492;28;20049;-54
2021/06/10 10:16:37;;;;;;;7.25;5.82;;;30.00;43.80;;;;;;5028504;28;20053;-55
2021/06/10 10:19:04;;;;;;;6.78;5.28;;;29.80;43.80;;;;;;5032824;28;20048;-53
2021/06/10 10:21:33;;;;;;;6.75;5.80;;;29.80;44.90;;;;;;5048777;28;20064;-52
2021/06/10 10:24:08;;;;;;;7.15;6.20;;;30.00;44.50;;;;;;5032095;28;20044;-57
2021/06/10 10:26:36;;;;;;;5.57;5.00;;;29.90;42.00;;;;;;5046333;28;20144;-58
2021/06/10 10:29:06;;;;;;;7.28;6.28;;;29.90;43.80;;;;;;5045050;28;20099;-54
2021/06/10 10:31:34;;;;;;;6.13;5.18;;;29.80;42.80;;;;;;5046001;28;20396;-51
2021/06/10 10:34:00;;;;;;;8.35;6.25;;;29.60;42.80;;;;;;5029032;28;20080;-55
2021/06/10 10:36:38;;;;;;;8.13;6.40;;;29.60;44.00;;;;;;5040087;28;20040;-54
2021/06/10 10:39:09;;;;;;;7.18;6.30;;;29.70;42.40;;;;;;5019391;28;20049;-54
2021/06/10 10:41:51;;;;;;;7.70;5.70;;;29.70;44.30;;;;;;5026354;28;20037;-52
2021/06/10 10:44:25;;;;;;;6.75;5.90;;;29.40;44.80;;;;;;5042604;28;20555;-53
2021/06/10 10:47:03;;;;;;;7.75;5.68;;;29.50;43.50;;;;;;5046174;28;20040;-55
2021/06/10 10:49:38;;;;;;;6.18;4.85;;;29.70;44.00;;;;;;5042869;28;20045;-56
2021/06/10 10:52:14;;;;;;;6.78;5.32;;;29.90;44.50;;;;;;5047045;28;20053;-54
2021/06/10 10:54:42;;;;;;;4.80;4.30;;;30.10;42.40;;;;;;5045943;28;20049;-54
2021/06/10 10:57:31;;;;;;;6.95;5.03;;;30.20;42.00;;;;;;5046605;28;20053;-55
2021/06/10 10:59:59;;;;;;;19.55;17.58;;;30.60;41.70;;;;;;5029679;28;20049;-53
2021/06/10 11:02:27;;;;;;;9.27;8.13;;;30.60;41.70;;;;;;5027307;28;20045;-55
2021/06/10 11:04:55;;;;;;;13.10;11.77;;;30.70;42.50;;;;;;5026800;28;20053;-51
2021/06/10 11:07:34;;;;;;;7.97;5.57;;;31.00;41.70;;;;;;5027281;28;20091;-54
2021/06/10 11:10:01;;;;;;;7.07;5.93;;;30.80;40.60;;;;;;5026651;28;20046;-55
2021/06/10 11:12:50;;;;;;;7.00;5.95;;;30.70;41.90;;;;;;5029043;28;20037;-51
2021/06/10 11:15:26;;;;;;;15.25;13.80;;;30.70;40.70;;;;;;5025705;28;20060;-51
2021/06/10 11:17:55;;;;;;;7.10;4.40;;;30.70;40.80;;;;;;5024074;28;20056;-52
2021/06/10 11:20:37;;;;;;;19.85;18.05;;;30.80;40.00;;;;;;5041648;28;20161;-52
2021/06/10 11:23:17;;;;;;;15.60;14.18;;;31.00;40.80;;;;;;5036007;28;20129;-52
2021/06/10 11:25:52;;;;;;;18.35;16.52;;;31.20;39.90;;;;;;5039588;28;20041;-55
2021/06/10 11:28:23;;;;;;;10.82;9.73;;;31.50;39.70;;;;;;5026259;28;20053;-51
2021/06/10 11:30:54;;;;;;;19.40;17.70;;;31.20;40.30;;;;;;5032279;28;20057;-52
2021/06/10 11:33:23;;;;;;;12.27;11.18;;;31.30;40.20;;;;;;5031170;28;20160;-57
2021/06/10 11:35:58;;;;;;;8.43;4.75;;;31.40;40.20;;;;;;5031234;28;20045;-55
2021/06/10 11:38:33;;;;;;;4.50;3.88;;;31.60;40.90;;;;;;5030847;28;20886;-53
2021/06/10 11:41:03;;;;;;;9.32;8.45;;;31.60;39.30;;;;;;5037516;28;20041;-56
2021/06/10 11:43:30;;;;;;;;;;;31.80;38.60;;;;;;5031389;28;20526;-52
2021/06/10 11:46:04;;;;;;;7.07;5.00;;;31.50;38.80;;;;;;5033271;28;19917;-51
2021/06/10 11:48:49;;;;;;;21.38;5.07;;;31.40;37.50;;;;;;5043766;28;20061;-55
2021/06/10 11:51:35;;;;;;;8.77;4.80;;;31.70;37.60;;;;;;5040252;28;20477;-55
2021/06/10 11:54:06;;;;;;;9.70;5.80;;;31.40;36.80;;;;;;5040749;28;20041;-51
2021/06/10 11:56:42;;;;;;;6.47;5.07;;;31.80;38.10;;;;;;5028695;28;20061;-50
2021/06/10 11:59:26;;;;;;;6.68;4.78;;;31.80;37.10;;;;;;5034426;28;20045;-55
2021/06/10 12:02:11;;;;;;;7.13;4.53;;;32.00;37.50;;;;;;5050542;28;20421;-52
2021/06/10 12:04:40;;;;;;;4.57;4.18;;;31.70;38.30;;;;;;5043622;28;20037;-52
2021/06/10 12:07:13;;;;;;;8.32;4.93;;;31.50;37.90;;;;;;5050366;28;20072;-52
2021/06/10 12:09:54;;;;;;;8.50;4.30;;;31.60;38.70;;;;;;5046913;28;20143;-55
2021/06/10 12:12:42;;;;;;;8.00;4.63;;;31.80;36.80;;;;;;5038943;28;20084;-55
2021/06/10 12:15:24;;;;;;;5.20;4.20;;;32.00;36.80;;;;;;5030732;28;20095;-51
2021/06/10 12:18:13;;;;;;;5.75;4.28;;;32.00;37.30;;;;;;5030816;28;20389;-52
2021/06/10 12:20:43;;;;;;;8.57;7.15;;;31.80;38.80;;;;;;5027065;28;20065;-49
2021/06/10 12:23:21;;;;;;;6.70;5.03;;;31.80;37.70;;;;;;5034845;28;20220;-56
2021/06/10 12:26:11;;;;;;;7.53;6.72;;;31.80;36.50;;;;;;5010297;28;20050;-51
2021/06/10 12:28:45;;;;;;;6.82;3.15;;;32.00;35.70;;;;;;5009871;28;20088;-56
2021/06/10 12:31:21;;;;;;;6.53;3.60;;;31.90;36.70;;;;;;5019160;28;20076;-51
2021/06/10 12:33:49;;;;;;;6.45;3.70;;;32.00;35.80;;;;;;5038441;28;20050;-50
2021/06/10 12:36:35;;;;;;;5.57;4.22;;;31.80;37.30;;;;;;5032710;28;20127;-54
2021/06/10 12:39:33;;;;;;;8.23;5.30;;;31.90;36.80;;;;;;5029793;28;20486;-53
2021/06/10 12:42:12;;;;;;;5.43;3.28;;;31.50;35.40;;;;;;5027580;28;20166;-53
2021/06/10 12:44:41;;;;;;;8.57;3.60;;;31.40;37.50;;;;;;5026413;28;20037;-52
2021/06/10 12:47:07;;;;;;;5.65;3.10;;;31.70;37.10;;;;;;5026306;28;20056;-56
2021/06/10 12:49:42;;;;;;;6.13;3.40;;;31.80;36.90;;;;;;5026823;28;20145;-51
2021/06/10 12:52:25;;;;;;;5.72;3.40;;;32.00;36.80;;;;;;5016268;28;20082;-51